createdAt,value
2018-12-27T00:01:14.382Z,94049.95
2018-12-27T00:03:41.863Z,94044.44
2018-12-27T00:06:09.395Z,94047.81
2018-12-27T00:08:36.919Z,94051.67
2018-12-27T00:11:04.484Z,94042.70
2018-12-27T00:13:32.193Z,94051.17
2018-12-27T00:15:59.854Z,94050.81
2018-12-27T00:18:27.509Z,94054.64
2018-12-27T00:20:55.124Z,94040.97
2018-12-27T00:23:22.629Z,94044.84
2018-12-27T00:25:50.126Z,94041.88
2018-12-27T00:28:17.656Z,94047.00
2018-12-27T00:30:45.170Z,94049.13
2018-12-27T00:33:12.705Z,94043.97
2018-12-27T00:35:40.237Z,94043.54
2018-12-27T00:38:07.819Z,94041.48
2018-12-27T00:40:35.311Z,94038.09
2018-12-27T00:43:02.806Z,94044.08
2018-12-27T00:45:30.337Z,94038.53
2018-12-27T00:47:57.854Z,94039.84
2018-12-27T00:50:25.411Z,94045.38
2018-12-27T00:52:53.137Z,94038.98
2018-12-27T00:55:20.917Z,94050.05
2018-12-27T00:57:48.581Z,94048.78
2018-12-27T01:00:16.198Z,94041.55
2018-12-27T01:02:43.712Z,94042.39
2018-12-27T01:05:11.267Z,94042.91
2018-12-27T01:07:38.787Z,94046.67
2018-12-27T01:10:06.457Z,94040.34
2018-12-27T01:12:34.062Z,94040.73
2018-12-27T01:15:01.574Z,94036.44
2018-12-27T01:17:29.166Z,94033.42
2018-12-27T01:19:56.716Z,94029.14
2018-12-27T01:22:24.307Z,94032.16
2018-12-27T01:24:51.956Z,94032.19
2018-12-27T01:27:19.596Z,94027.49
2018-12-27T01:29:47.183Z,94023.61
2018-12-27T01:32:14.660Z,94021.95
2018-12-27T01:34:42.214Z,94019.39
2018-12-27T01:37:09.831Z,94026.52
2018-12-27T01:39:37.516Z,94021.03
2018-12-27T01:42:05.036Z,94021.97
2018-12-27T01:44:32.638Z,94024.03
2018-12-27T01:47:00.335Z,94019.82
2018-12-27T01:49:27.885Z,94017.64
2018-12-27T01:51:55.498Z,94012.92
2018-12-27T01:54:23.001Z,94015.52
2018-12-27T01:56:50.565Z,94015.52
2018-12-27T01:59:18.061Z,94015.09
2018-12-27T02:01:45.623Z,94009.18
2018-12-27T02:04:13.180Z,94003.62
2018-12-27T02:06:40.703Z,94006.99
2018-12-27T02:09:08.360Z,94008.34
2018-12-27T02:11:35.879Z,94003.59
2018-12-27T02:14:03.612Z,94001.42
2018-12-27T02:16:31.277Z,94001.03
2018-12-27T02:18:58.808Z,94001.89
2018-12-27T02:21:26.425Z,94009.53
2018-12-27T02:23:53.900Z,94008.33
2018-12-27T02:26:21.535Z,94006.15
2018-12-27T02:28:49.083Z,94001.03
2018-12-27T02:31:16.601Z,93998.92
2018-12-27T02:33:44.124Z,93997.66
2018-12-27T02:36:11.672Z,93996.33
2018-12-27T02:38:39.175Z,93993.77
2018-12-27T02:41:06.727Z,93990.40
2018-12-27T02:43:34.255Z,93986.17
2018-12-27T02:46:01.743Z,93982.71
2018-12-27T02:48:29.311Z,93980.13
2018-12-27T02:50:56.803Z,93972.86
2018-12-27T02:53:24.425Z,93973.70
2018-12-27T02:55:51.952Z,93969.03
2018-12-27T02:58:19.471Z,93976.30
2018-12-27T03:00:47.046Z,93971.20
2018-12-27T03:03:14.560Z,93965.66
2018-12-27T03:05:42.158Z,93964.83
2018-12-27T03:08:09.823Z,93968.67
2018-12-27T03:10:37.360Z,93964.41
2018-12-27T03:13:05.049Z,93962.20
2018-12-27T03:15:32.881Z,93965.63
2018-12-27T03:18:00.359Z,93971.59
2018-12-27T03:20:27.901Z,93971.20
2018-12-27T03:22:55.594Z,93972.52
2018-12-27T03:25:23.235Z,93976.81
2018-12-27T03:27:50.756Z,93968.30
2018-12-27T03:30:18.252Z,93974.63
2018-12-27T03:32:45.793Z,93981.07
2018-12-27T03:35:13.402Z,93978.50
2018-12-27T03:37:40.873Z,93980.20
2018-12-27T03:40:08.400Z,93983.62
2018-12-27T03:42:35.854Z,93985.70
2018-12-27T03:45:03.462Z,93987.82
2018-12-27T03:47:31.021Z,93989.09
2018-12-27T03:49:58.550Z,93989.48
2018-12-27T03:52:26.062Z,93985.72
2018-12-27T03:54:53.687Z,93990.87
2018-12-27T03:57:21.207Z,93992.12
2018-12-27T03:59:48.896Z,93993.38
2018-12-27T04:02:16.427Z,93995.11
2018-12-27T04:04:44.026Z,93998.05
2018-12-27T04:07:11.570Z,94007.42
2018-12-27T04:09:40.139Z,94006.41
2018-12-27T04:12:07.815Z,94016.72
2018-12-27T04:14:35.444Z,94015.28
2018-12-27T04:17:02.926Z,94011.15
2018-12-27T04:19:30.415Z,94016.56
2018-12-27T04:21:57.923Z,94021.77
2018-12-27T04:24:25.574Z,94028.27
2018-12-27T04:26:53.151Z,94036.39
2018-12-27T04:29:20.633Z,94032.68
2018-12-27T04:31:48.663Z,94036.10
2018-12-27T04:34:16.929Z,94034.05
2018-12-27T04:36:44.531Z,94038.26
2018-12-27T04:39:12.101Z,94042.64
2018-12-27T04:41:40.011Z,94040.91
2018-12-27T04:44:07.729Z,94047.87
2018-12-27T04:46:35.238Z,94047.39
2018-12-27T04:49:02.734Z,94044.30
2018-12-27T04:51:30.712Z,94055.23
2018-12-27T04:53:58.333Z,94052.84
2018-12-27T04:56:25.932Z,94058.88
2018-12-27T04:58:53.640Z,94059.34
2018-12-27T05:01:21.364Z,94064.68
2018-12-27T05:03:49.055Z,94069.29
2018-12-27T05:06:16.736Z,94068.52
2018-12-27T05:08:44.531Z,94081.77
2018-12-27T05:11:12.450Z,94079.66
2018-12-27T05:13:41.361Z,94084.09
2018-12-27T05:16:09.275Z,94080.73
2018-12-27T05:18:37.243Z,94081.20
2018-12-27T05:21:05.264Z,94085.47
2018-12-27T05:23:33.102Z,94091.67
2018-12-27T05:26:00.866Z,94087.80
2018-12-27T05:28:28.800Z,94089.08
2018-12-27T05:30:56.846Z,94095.81
2018-12-27T05:33:24.671Z,94098.62
2018-12-27T05:35:52.424Z,94098.78
2018-12-27T05:38:20.429Z,94097.05
2018-12-27T05:40:48.257Z,94108.86
2018-12-27T05:43:16.092Z,94111.00
2018-12-27T05:45:43.785Z,94112.78
2018-12-27T05:48:11.553Z,94116.99
2018-12-27T05:50:39.546Z,94118.28
2018-12-27T05:53:07.383Z,94116.27
2018-12-27T05:55:35.145Z,94117.13
2018-12-27T05:58:02.986Z,94114.63
2018-12-27T06:00:30.646Z,94113.02
2018-12-27T06:02:58.325Z,94117.22
2018-12-27T06:05:26.192Z,94127.40
2018-12-27T06:07:53.885Z,94129.12
2018-12-27T06:10:21.570Z,94136.39
2018-12-27T06:12:49.463Z,94141.27
2018-12-27T06:15:17.200Z,94145.47
2018-12-27T06:17:44.841Z,94153.99
2018-12-27T06:20:12.637Z,94147.16
2018-12-27T06:22:40.414Z,94144.66
2018-12-27T06:25:08.209Z,94146.38
2018-12-27T06:27:35.947Z,94154.42
2018-12-27T06:30:04.374Z,94156.89
2018-12-27T06:32:32.195Z,94151.77
2018-12-27T06:34:59.993Z,94156.08
2018-12-27T06:37:27.842Z,94162.37
2018-12-27T06:39:55.656Z,94164.12
2018-12-27T06:42:23.561Z,94164.85
2018-12-27T06:44:51.251Z,94162.81
2018-12-27T06:47:19.056Z,94173.33
2018-12-27T06:49:46.663Z,94171.69
2018-12-27T06:52:14.421Z,94168.64
2018-12-27T06:54:42.201Z,94174.50
2018-12-27T06:57:09.952Z,94165.22
2018-12-27T06:59:37.747Z,94168.57
2018-12-27T07:02:05.611Z,94172.40
2018-12-27T07:04:33.280Z,94170.29
2018-12-27T07:07:01.034Z,94171.11
2018-12-27T07:09:28.644Z,94172.77
2018-12-27T07:11:56.527Z,94170.30
2018-12-27T07:14:24.276Z,94170.18
2018-12-27T07:16:52.463Z,94174.38
2018-12-27T07:19:20.368Z,94173.22
2018-12-27T07:21:48.114Z,94176.26
2018-12-27T07:24:15.711Z,94178.68
2018-12-27T07:26:44.469Z,94177.41
2018-12-27T07:29:12.336Z,94181.28
2018-12-27T07:31:39.836Z,94183.89
2018-12-27T07:34:07.595Z,94182.16
2018-12-27T07:36:35.148Z,94180.08
2018-12-27T07:39:05.253Z,94185.97
2018-12-27T07:41:32.784Z,94191.45
2018-12-27T07:44:00.594Z,94190.66
2018-12-27T07:46:28.259Z,94190.88
2018-12-27T07:48:55.832Z,94199.39
2018-12-27T07:51:23.507Z,94199.28
2018-12-27T07:53:51.078Z,94196.70
2018-12-27T07:56:18.690Z,94198.09
2018-12-27T07:58:46.226Z,94204.03
2018-12-27T08:01:13.800Z,94209.15
2018-12-27T08:03:41.447Z,94206.94
2018-12-27T08:06:08.968Z,94210.69
2018-12-27T08:08:36.525Z,94219.30
2018-12-27T08:11:04.238Z,94220.92
2018-12-27T08:13:31.768Z,94222.18
2018-12-27T08:15:59.444Z,94226.38
2018-12-27T08:18:27.099Z,94229.38
2018-12-27T08:20:54.667Z,94230.25
2018-12-27T08:23:22.439Z,94232.31
2018-12-27T08:25:50.066Z,94242.18
2018-12-27T08:28:17.579Z,94232.59
2018-12-27T08:30:45.226Z,94238.61
2018-12-27T08:33:12.764Z,94237.34
2018-12-27T08:35:40.700Z,94238.01
2018-12-27T08:38:08.207Z,94236.85
2018-12-27T08:40:35.715Z,94242.27
2018-12-27T08:43:03.435Z,94244.33
2018-12-27T08:45:31.106Z,94241.44
2018-12-27T08:47:58.724Z,94242.88
2018-12-27T08:50:26.282Z,94238.87
2018-12-27T08:52:53.970Z,94237.57
2018-12-27T08:55:21.870Z,94237.43
2018-12-27T08:57:50.196Z,94238.36
2018-12-27T09:00:18.027Z,94236.98
2018-12-27T09:02:46.148Z,94233.04
2018-12-27T09:05:18.846Z,94233.09
2018-12-27T09:07:43.402Z,94226.34
2018-12-27T09:10:11.500Z,94229.64
2018-12-27T09:12:39.085Z,94231.77
2018-12-27T09:15:06.973Z,94229.34
2018-12-27T09:17:34.798Z,94222.57
2018-12-27T09:20:02.592Z,94219.63
2018-12-27T09:22:30.646Z,94223.18
2018-12-27T09:24:58.322Z,94224.41
2018-12-27T09:27:25.945Z,94222.87
2018-12-27T09:29:53.833Z,94225.45
2018-12-27T09:32:21.718Z,94224.11
2018-12-27T09:34:49.520Z,94220.25
2018-12-27T09:37:17.179Z,94217.25
2018-12-27T09:39:44.773Z,94221.49
2018-12-27T09:42:12.327Z,94214.97
2018-12-27T09:44:39.813Z,94212.98
2018-12-27T09:47:07.248Z,94211.61
2018-12-27T09:49:34.805Z,94213.20
2018-12-27T09:52:02.507Z,94206.60
2018-12-27T09:54:30.048Z,94207.20
2018-12-27T09:56:57.551Z,94200.86
2018-12-27T09:59:25.032Z,94203.42
2018-12-27T10:01:52.639Z,94194.84
2018-12-27T10:04:21.038Z,94193.30
2018-12-27T10:06:48.481Z,94193.99
2018-12-27T10:09:16.032Z,94191.86
2018-12-27T10:11:43.627Z,94181.62
2018-12-27T10:14:11.133Z,94176.63
2018-12-27T10:16:38.656Z,94172.59
2018-12-27T10:19:06.203Z,94168.80
2018-12-27T10:21:33.657Z,94168.38
2018-12-27T10:24:01.211Z,94169.89
2018-12-27T10:26:28.821Z,94167.48
2018-12-27T10:28:56.349Z,94165.87
2018-12-27T10:31:23.988Z,94162.73
2018-12-27T10:33:51.620Z,94160.95
2018-12-27T10:36:19.320Z,94160.59
2018-12-27T10:38:46.941Z,94158.83
2018-12-27T10:41:14.512Z,94164.86
2018-12-27T10:43:42.044Z,94159.95
2018-12-27T10:46:09.536Z,94160.30
2018-12-27T10:48:37.086Z,94158.89
2018-12-27T10:51:04.696Z,94151.63
2018-12-27T10:53:32.208Z,94149.20
2018-12-27T10:56:00.496Z,94147.88
2018-12-27T10:58:28.219Z,94146.84
2018-12-27T11:00:55.861Z,94145.81
2018-12-27T11:03:30.305Z,94144.30
2018-12-27T11:05:53.137Z,94132.63
2018-12-27T11:08:20.755Z,94130.07
2018-12-27T11:10:48.229Z,94132.94
2018-12-27T11:13:15.835Z,94133.63
2018-12-27T11:15:43.554Z,94127.23
2018-12-27T11:18:11.187Z,94127.34
2018-12-27T11:20:39.210Z,94127.39
2018-12-27T11:23:07.118Z,94120.56
2018-12-27T11:25:35.129Z,94121.59
2018-12-27T11:28:03.091Z,94118.67
2018-12-27T11:30:30.816Z,94117.71
2018-12-27T11:32:59.306Z,94121.68
2018-12-27T11:35:28.335Z,94117.73
2018-12-27T11:37:56.403Z,94126.92
2018-12-27T11:40:24.221Z,94122.11
2018-12-27T11:42:52.158Z,94126.68
2018-12-27T11:45:20.269Z,94116.87
2018-12-27T11:47:48.072Z,94119.31
2018-12-27T11:50:15.927Z,94118.10
2018-12-27T11:52:43.550Z,94121.53
2018-12-27T11:55:11.300Z,94125.99
2018-12-27T11:57:39.661Z,94123.28
2018-12-27T12:00:09.251Z,94132.25
2018-12-27T12:02:37.078Z,94126.83
2018-12-27T12:05:05.003Z,94136.16
2018-12-27T12:07:32.920Z,94137.87
2018-12-27T12:10:00.612Z,94143.83
2018-12-27T12:12:28.524Z,94144.48
2018-12-27T12:14:56.557Z,94146.23
2018-12-27T12:17:24.486Z,94144.91
2018-12-27T12:19:52.377Z,94147.63
2018-12-27T12:22:20.304Z,94151.45
2018-12-27T12:24:48.208Z,94156.59
2018-12-27T12:27:16.270Z,94154.87
2018-12-27T12:29:44.045Z,94153.52
2018-12-27T12:32:12.119Z,94157.20
2018-12-27T12:34:40.364Z,94154.21
2018-12-27T12:37:13.890Z,94153.57
2018-12-27T12:39:38.077Z,94151.92
2018-12-27T12:42:06.055Z,94150.05
2018-12-27T12:44:33.835Z,94151.08
2018-12-27T12:47:02.156Z,94153.18
2018-12-27T12:49:30.052Z,94147.59
2018-12-27T12:51:58.256Z,94147.61
2018-12-27T12:54:26.050Z,94151.92
2018-12-27T12:56:53.852Z,94147.73
2018-12-27T12:59:21.953Z,94144.06
2018-12-27T13:01:49.812Z,94146.63
2018-12-27T13:04:17.811Z,94145.05
2018-12-27T13:06:45.636Z,94140.91
2018-12-27T13:09:13.833Z,94147.17
2018-12-27T13:11:41.475Z,94150.62
2018-12-27T13:14:09.275Z,94149.48
2018-12-27T13:16:37.140Z,94147.30
2018-12-27T13:19:04.894Z,94147.41
2018-12-27T13:21:32.672Z,94146.50
2018-12-27T13:24:00.626Z,94150.25
2018-12-27T13:26:28.743Z,94148.19
2018-12-27T13:28:56.739Z,94142.94
2018-12-27T13:31:24.861Z,94149.36
2018-12-27T13:33:52.779Z,94145.76
2018-12-27T13:36:25.356Z,94140.92
2018-12-27T13:38:50.936Z,94136.73
2018-12-27T13:41:18.984Z,94135.80
2018-12-27T13:43:47.256Z,94134.52
2018-12-27T13:46:15.228Z,94131.56
2018-12-27T13:48:43.116Z,94130.33
2018-12-27T13:51:11.484Z,94136.63
2018-12-27T13:53:40.434Z,94134.77
2018-12-27T13:56:08.727Z,94137.66
2018-12-27T13:58:36.832Z,94137.55
2018-12-27T14:01:04.959Z,94136.54
2018-12-27T14:03:33.507Z,94142.80
2018-12-27T14:06:01.698Z,94137.72
2018-12-27T14:08:29.528Z,94133.86
2018-12-27T14:10:57.956Z,94141.72
2018-12-27T14:13:26.213Z,94150.20
2018-12-27T14:15:54.014Z,94144.39
2018-12-27T14:18:21.786Z,94145.78
2018-12-27T14:20:49.680Z,94153.42
2018-12-27T14:23:17.577Z,94156.39
2018-12-27T14:25:45.283Z,94163.34
2018-12-27T14:28:13.606Z,94163.37
2018-12-27T14:30:41.547Z,94166.25
2018-12-27T14:33:09.401Z,94165.94
2018-12-27T14:35:37.279Z,94167.23
2018-12-27T14:38:05.163Z,94160.10
2018-12-27T14:40:34.069Z,94172.08
2018-12-27T14:43:01.869Z,94167.42
2018-12-27T14:45:29.831Z,94168.36
2018-12-27T14:47:57.733Z,94170.28
2018-12-27T14:50:25.593Z,94163.31
2018-12-27T14:52:53.311Z,94174.00
2018-12-27T14:55:21.106Z,94173.66
2018-12-27T14:57:48.931Z,94170.63
2018-12-27T15:00:16.797Z,94172.95
2018-12-27T15:02:44.668Z,94170.11
2018-12-27T15:05:12.561Z,94173.88
2018-12-27T15:07:40.382Z,94173.75
2018-12-27T15:10:09.146Z,94173.85
2018-12-27T15:12:37.019Z,94175.95
2018-12-27T15:15:04.933Z,94176.38
2018-12-27T15:17:32.587Z,94176.50
2018-12-27T15:20:00.455Z,94177.66
2018-12-27T15:22:28.437Z,94166.22
2018-12-27T15:24:56.455Z,94170.50
2018-12-27T15:27:24.205Z,94173.85
2018-12-27T15:29:52.050Z,94180.34
2018-12-27T15:32:20.056Z,94182.89
2018-12-27T15:34:47.928Z,94186.42
2018-12-27T15:37:15.858Z,94180.35
2018-12-27T15:39:43.754Z,94186.75
2018-12-27T15:42:11.701Z,94181.17
2018-12-27T15:44:39.532Z,94183.85
2018-12-27T15:47:07.787Z,94187.25
2018-12-27T15:49:35.707Z,94182.69
2018-12-27T15:52:03.500Z,94187.71
2018-12-27T15:54:31.260Z,94180.91
2018-12-27T15:56:58.947Z,94188.14
2018-12-27T15:59:26.636Z,94191.08
2018-12-27T16:01:54.481Z,94188.06
2018-12-27T16:04:22.262Z,94187.77
2018-12-27T16:06:49.941Z,94190.00
2018-12-27T16:09:17.633Z,94191.59
2018-12-27T16:11:45.455Z,94194.91
2018-12-27T16:14:13.212Z,94191.98
2018-12-27T16:16:40.907Z,94191.52
2018-12-27T16:19:08.702Z,94192.00
2018-12-27T16:21:36.480Z,94198.38
2018-12-27T16:24:04.314Z,94190.58
2018-12-27T16:26:32.215Z,94193.70
2018-12-27T16:29:00.065Z,94195.84
2018-12-27T16:31:27.898Z,94196.73
2018-12-27T16:33:55.782Z,94204.05
2018-12-27T16:36:23.641Z,94204.88
2018-12-27T16:38:51.776Z,94211.00
2018-12-27T16:41:19.820Z,94205.44
2018-12-27T16:43:47.791Z,94209.33
2018-12-27T16:46:16.195Z,94217.05
2018-12-27T16:48:45.402Z,94214.84
2018-12-27T16:51:13.692Z,94216.91
2018-12-27T16:53:42.151Z,94222.52
2018-12-27T16:56:10.149Z,94225.38
2018-12-27T16:58:39.614Z,94219.05
2018-12-27T17:01:07.873Z,94215.28
2018-12-27T17:03:35.650Z,94222.48
2018-12-27T17:06:04.482Z,94225.23
2018-12-27T17:08:32.804Z,94221.94
2018-12-27T17:11:01.335Z,94221.20
2018-12-27T17:13:29.272Z,94222.94
2018-12-27T17:15:57.220Z,94216.19
2018-12-27T17:18:25.602Z,94217.45
2018-12-27T17:20:53.859Z,94218.73
2018-12-27T17:23:22.225Z,94213.20
2018-12-27T17:25:50.008Z,94215.39
2018-12-27T17:28:17.942Z,94214.75
2018-12-27T17:30:45.719Z,94219.39
2018-12-27T17:33:13.467Z,94222.95
2018-12-27T17:35:42.551Z,94225.06
2018-12-27T17:38:10.464Z,94232.19
2018-12-27T17:40:38.143Z,94223.33
2018-12-27T17:43:05.798Z,94225.97
2018-12-27T17:45:33.605Z,94223.83
2018-12-27T17:48:01.725Z,94222.09
2018-12-27T17:50:29.453Z,94213.16
2018-12-27T17:52:56.966Z,94213.70
2018-12-27T17:55:25.415Z,94214.80
2018-12-27T17:57:53.761Z,94209.73
2018-12-27T18:00:21.664Z,94205.45
2018-12-27T18:02:49.328Z,94210.16
2018-12-27T18:05:17.009Z,94207.61
2018-12-27T18:07:44.980Z,94207.63
2018-12-27T18:10:12.837Z,94209.36
2018-12-27T18:12:40.830Z,94204.69
2018-12-27T18:15:08.573Z,94207.24
2018-12-27T18:17:36.217Z,94207.25
2018-12-27T18:20:04.440Z,94205.52
2018-12-27T18:22:32.302Z,94211.02
2018-12-27T18:25:00.157Z,94208.07
2018-12-27T18:27:28.030Z,94214.47
2018-12-27T18:29:55.845Z,94211.47
2018-12-27T18:32:24.254Z,94215.30
2018-12-27T18:34:54.575Z,94212.36
2018-12-27T18:37:22.737Z,94219.12
2018-12-27T18:39:50.714Z,94219.57
2018-12-27T18:42:18.531Z,94217.03
2018-12-27T18:44:46.162Z,94217.90
2018-12-27T18:47:13.851Z,94216.98
2018-12-27T18:49:41.736Z,94221.23
2018-12-27T18:52:09.686Z,94219.94
2018-12-27T18:54:37.301Z,94218.66
2018-12-27T18:57:05.521Z,94223.74
2018-12-27T18:59:33.416Z,94225.03
2018-12-27T19:02:01.226Z,94222.88
2018-12-27T19:04:29.929Z,94221.14
2018-12-27T19:06:57.674Z,94217.67
2018-12-27T19:09:25.873Z,94218.55
2018-12-27T19:12:29.759Z,94218.11
2018-12-27T19:15:01.872Z,94213.91
2018-12-27T19:17:38.516Z,94222.41
2018-12-27T19:20:06.652Z,94217.75
2018-12-27T19:22:48.995Z,94214.84
2018-12-27T19:25:17.296Z,94214.91
2018-12-27T19:27:45.117Z,94208.08
2018-12-27T19:30:12.821Z,94211.02
2018-12-27T19:32:40.754Z,94213.17
2018-12-27T19:35:08.909Z,94209.34
2018-12-27T19:37:36.819Z,94205.52
2018-12-27T19:40:04.808Z,94204.63
2018-12-27T19:42:32.747Z,94207.23
2018-12-27T19:45:00.681Z,94208.51
2018-12-27T19:47:28.572Z,94208.07
2018-12-27T19:49:56.234Z,94204.23
2018-12-27T19:52:24.067Z,94203.40
2018-12-27T19:54:51.804Z,94207.64
2018-12-27T19:57:19.619Z,94200.80
2018-12-27T19:59:47.191Z,94199.06
2018-12-27T20:02:15.026Z,94201.24
2018-12-27T20:04:42.861Z,94200.84
2018-12-27T20:07:10.604Z,94204.23
2018-12-27T20:09:38.758Z,94200.86
2018-12-27T20:12:06.584Z,94207.23
2018-12-27T20:14:34.304Z,94202.94
2018-12-27T20:17:02.037Z,94205.91
2018-12-27T20:19:29.972Z,94210.56
2018-12-27T20:21:57.893Z,94202.97
2018-12-27T20:24:25.555Z,94206.78
2018-12-27T20:26:53.504Z,94202.88
2018-12-27T20:29:21.506Z,94205.36
2018-12-27T20:31:49.364Z,94204.08
2018-12-27T20:34:17.920Z,94199.34
2018-12-27T20:36:45.879Z,94205.34
2018-12-27T20:39:13.832Z,94202.72
2018-12-27T20:41:41.530Z,94207.87
2018-12-27T20:44:09.561Z,94200.60
2018-12-27T20:46:37.387Z,94209.10
2018-12-27T20:49:05.106Z,94203.98
2018-12-27T20:51:32.725Z,94195.03
2018-12-27T20:54:00.531Z,94203.13
2018-12-27T20:56:28.689Z,94204.58
2018-12-27T20:58:56.806Z,94202.14
2018-12-27T21:01:24.735Z,94201.39
2018-12-27T21:03:52.742Z,94201.42
2018-12-27T21:06:20.479Z,94194.59
2018-12-27T21:08:48.249Z,94195.42
2018-12-27T21:11:16.092Z,94191.00
2018-12-27T21:13:44.110Z,94189.70
2018-12-27T21:16:11.918Z,94182.54
2018-12-27T21:18:39.862Z,94189.38
2018-12-27T21:21:07.641Z,94180.50
2018-12-27T21:23:35.546Z,94180.09
2018-12-27T21:26:03.350Z,94176.31
2018-12-27T21:28:31.178Z,94176.25
2018-12-27T21:30:59.077Z,94177.86
2018-12-27T21:33:26.924Z,94174.49
2018-12-27T21:35:54.705Z,94175.52
2018-12-27T21:38:22.468Z,94177.32
2018-12-27T21:40:50.539Z,94173.95
2018-12-27T21:43:18.553Z,94169.30
2018-12-27T21:45:46.648Z,94170.95
2018-12-27T21:48:14.470Z,94166.73
2018-12-27T21:50:42.646Z,94162.48
2018-12-27T21:53:10.586Z,94161.66
2018-12-27T21:55:38.241Z,94159.38
2018-12-27T21:58:06.213Z,94153.99
2018-12-27T22:00:33.873Z,94153.70
2018-12-27T22:03:01.386Z,94151.39
2018-12-27T22:05:28.972Z,94152.83
2018-12-27T22:07:56.551Z,94160.56
2018-12-27T22:10:24.427Z,94152.92
2018-12-27T22:12:51.939Z,94148.27
2018-12-27T22:15:19.500Z,94149.61
2018-12-27T22:17:47.171Z,94144.95
2018-12-27T22:20:14.737Z,94146.23
2018-12-27T22:22:42.445Z,94142.45
2018-12-27T22:25:10.041Z,94139.09
2018-12-27T22:27:37.578Z,94134.00
2018-12-27T22:30:06.142Z,94127.25
2018-12-27T22:32:33.648Z,94129.46
2018-12-27T22:35:01.240Z,94128.70
2018-12-27T22:37:28.939Z,94129.20
2018-12-27T22:39:56.489Z,94127.09
2018-12-27T22:42:24.051Z,94128.38
2018-12-27T22:44:51.560Z,94123.34
2018-12-27T22:47:19.172Z,94119.11
2018-12-27T22:49:46.847Z,94122.95
2018-12-27T22:52:14.569Z,94124.31
2018-12-27T22:54:42.211Z,94121.33
2018-12-27T22:57:09.888Z,94115.35
2018-12-27T22:59:37.386Z,94114.12
2018-12-27T23:02:05.046Z,94115.36
2018-12-27T23:04:32.560Z,94113.25
2018-12-27T23:07:00.100Z,94109.42
2018-12-27T23:09:27.631Z,94110.74
2018-12-27T23:11:55.111Z,94117.52
2018-12-27T23:14:22.880Z,94118.83
2018-12-27T23:16:50.550Z,94123.53
2018-12-27T23:19:18.035Z,94120.55
2018-12-27T23:21:45.571Z,94116.77
2018-12-27T23:24:13.088Z,94117.64
2018-12-27T23:26:40.616Z,94115.48
2018-12-27T23:29:08.118Z,94112.55
2018-12-27T23:31:35.670Z,94112.95
2018-12-27T23:34:03.193Z,94113.83
2018-12-27T23:36:30.783Z,94113.83
2018-12-27T23:38:58.486Z,94110.40
2018-12-27T23:41:25.954Z,94110.04
2018-12-27T23:43:53.578Z,94113.47
2018-12-27T23:46:21.084Z,94123.21
2018-12-27T23:48:48.711Z,94124.95
2018-12-27T23:51:16.300Z,94124.98
2018-12-27T23:53:43.824Z,94130.95
2018-12-27T23:56:11.479Z,94130.52
2018-12-27T23:58:39.216Z,94134.33
